createdAt,value
2019-03-31T00:01:08.644Z,20.83
2019-03-31T00:03:41.591Z,21.10
2019-03-31T00:06:11.182Z,19.80
2019-03-31T00:08:40.719Z,18.73
2019-03-31T00:11:10.104Z,18.73
2019-03-31T00:13:40.693Z,18.00
2019-03-31T00:16:10.110Z,17.70
2019-03-31T00:18:39.466Z,16.40
2019-03-31T00:21:08.939Z,17.00
2019-03-31T00:23:38.291Z,15.13
2019-03-31T00:26:07.764Z,16.80
2019-03-31T00:28:37.167Z,16.60
2019-03-31T00:31:07.132Z,16.13
2019-03-31T00:33:36.525Z,16.30
2019-03-31T00:36:06.341Z,15.00
2019-03-31T00:38:38.824Z,14.90
2019-03-31T00:41:08.242Z,14.47
2019-03-31T00:43:37.661Z,16.23
2019-03-31T00:46:07.260Z,15.67
2019-03-31T00:48:36.705Z,15.17
2019-03-31T00:51:06.345Z,14.90
2019-03-31T00:53:35.729Z,15.23
2019-03-31T00:56:05.658Z,14.67
2019-03-31T00:58:34.976Z,15.83
2019-03-31T01:01:35.742Z,15.63
2019-03-31T01:03:54.343Z,15.47
2019-03-31T02:59:45.251Z,10.57
2019-03-31T03:35:21.274Z,8.27
2019-03-31T03:38:11.492Z,9.50
2019-03-31T03:41:10.221Z,8.03
2019-03-31T04:35:30.397Z,3.50
2019-03-31T06:07:04.709Z,2.30
2019-03-31T06:09:58.857Z,1.87
2019-03-31T12:40:06.638Z,1.37
2019-03-31T12:42:57.513Z,1.20
2019-03-31T12:45:30.365Z,1.90
2019-03-31T12:48:01.763Z,1.40
2019-03-31T13:00:58.000Z,1.20
2019-03-31T13:15:54.180Z,1.20
2019-03-31T13:18:55.699Z,1.43
2019-03-31T13:25:34.704Z,1.30
2019-03-31T13:28:36.161Z,1.47
2019-03-31T13:32:10.604Z,1.20
2019-03-31T13:34:52.942Z,1.43
2019-03-31T13:38:10.791Z,1.70
2019-03-31T13:40:55.964Z,1.10
